createdAt,value
2017-10-05T00:00:10.369Z,967.63
2017-10-05T00:01:19.064Z,967.67
2017-10-05T00:02:28.076Z,967.68
2017-10-05T00:03:37.415Z,967.63
2017-10-05T00:04:46.748Z,967.62
2017-10-05T00:05:56.401Z,967.58
2017-10-05T00:07:05.416Z,967.53
2017-10-05T00:08:14.113Z,967.42
2017-10-05T00:09:22.809Z,967.48
2017-10-05T00:10:31.822Z,967.46
2017-10-05T00:11:40.517Z,967.48
2017-10-05T00:12:49.556Z,967.5
2017-10-05T00:13:58.572Z,967.47
2017-10-05T00:15:08.224Z,967.48
2017-10-05T00:16:17.882Z,967.42
2017-10-05T00:17:27.223Z,967.37
2017-10-05T00:18:35.914Z,967.37
2017-10-05T00:19:45.241Z,967.4
2017-10-05T00:20:53.934Z,967.33
2017-10-05T00:22:03.264Z,967.29
2017-10-05T00:23:11.958Z,967.31
2017-10-05T00:24:20.977Z,967.25
2017-10-05T00:25:29.989Z,967.19
2017-10-05T00:26:39.963Z,967.18
2017-10-05T00:27:48.973Z,967.12
2017-10-05T00:28:58.307Z,967.12
2017-10-05T00:30:07.956Z,967.05
2017-10-05T00:31:36.811Z,967.06
2017-10-05T00:32:46.143Z,967.01
2017-10-05T00:33:55.498Z,966.94
2017-10-05T00:35:05.156Z,966.95
2017-10-05T00:36:14.486Z,966.89
2017-10-05T00:37:23.817Z,966.96
2017-10-05T00:38:33.471Z,966.94
2017-10-05T00:39:43.120Z,966.94
2017-10-05T00:40:52.458Z,966.91
2017-10-05T00:42:01.150Z,966.91
2017-10-05T00:43:10.482Z,966.91
2017-10-05T00:44:20.455Z,966.88
2017-10-05T00:45:29.466Z,966.93
2017-10-05T00:46:39.462Z,966.91
2017-10-05T00:47:48.475Z,966.91
2017-10-05T00:48:57.484Z,966.84
2017-10-05T00:50:06.183Z,966.76
2017-10-05T00:51:15.519Z,966.71
2017-10-05T00:52:24.211Z,966.66
2017-10-05T00:53:32.902Z,966.66
2017-10-05T00:54:41.918Z,966.62
2017-10-05T00:55:50.928Z,966.5
2017-10-05T00:56:59.944Z,966.47
2017-10-05T00:58:09.282Z,966.48
2017-10-05T00:59:17.980Z,966.4
2017-10-05T01:00:27.324Z,966.35
2017-10-05T01:01:36.336Z,966.36
2017-10-05T01:02:45.987Z,966.36
2017-10-05T01:03:54.687Z,966.24
2017-10-05T01:05:04.029Z,966.21
2017-10-05T01:06:13.370Z,966.17
2017-10-05T01:07:22.702Z,966.19
2017-10-05T01:08:31.713Z,966.15
2017-10-05T01:09:40.728Z,966.07
2017-10-05T01:10:50.068Z,966.1
2017-10-05T01:11:59.085Z,966.06
2017-10-05T01:13:08.435Z,965.98
2017-10-05T01:14:18.099Z,965.96
2017-10-05T01:15:27.119Z,965.87
2017-10-05T01:16:36.132Z,965.89
2017-10-05T01:17:45.471Z,965.84
2017-10-05T01:18:55.128Z,965.76
2017-10-05T01:20:04.777Z,965.75
2017-10-05T01:21:13.791Z,965.67
2017-10-05T01:22:23.443Z,965.75
2017-10-05T01:23:33.100Z,965.65
2017-10-05T01:24:42.114Z,965.59
2017-10-05T01:25:51.126Z,965.5
2017-10-05T01:27:00.138Z,965.43
2017-10-05T01:28:09.483Z,965.39
2017-10-05T01:29:18.820Z,965.37
2017-10-05T01:30:27.834Z,965.31
2017-10-05T01:31:37.166Z,965.34
2017-10-05T01:32:45.862Z,965.32
2017-10-05T01:33:54.881Z,965.25
2017-10-05T01:35:03.890Z,965.23
2017-10-05T01:36:12.909Z,965.28
2017-10-05T01:37:22.555Z,965.18
2017-10-05T01:38:32.212Z,965.16
2017-10-05T01:39:41.228Z,965.09
2017-10-05T01:40:50.889Z,965.14
2017-10-05T01:42:00.535Z,965.09
2017-10-05T01:43:10.514Z,965.01
2017-10-05T01:44:19.524Z,965.01
2017-10-05T01:45:28.221Z,964.93
2017-10-05T01:46:37.233Z,964.83
2017-10-05T01:47:46.576Z,964.81
2017-10-05T01:48:56.546Z,964.81
2017-10-05T01:50:05.884Z,964.79
2017-10-05T01:51:15.232Z,964.76
2017-10-05T01:52:24.565Z,964.72
2017-10-05T01:53:33.902Z,964.65
2017-10-05T01:54:42.944Z,964.66
2017-10-05T01:55:52.593Z,964.65
2017-10-05T01:57:01.287Z,964.56
2017-10-05T01:58:09.978Z,964.54
2017-10-05T01:59:18.671Z,964.54
2017-10-05T02:00:28.006Z,964.53
2017-10-05T02:01:37.026Z,964.45
2017-10-05T02:02:46.365Z,964.41
2017-10-05T02:03:55.375Z,964.37
2017-10-05T02:05:04.707Z,964.34
2017-10-05T02:06:14.673Z,964.24
2017-10-05T02:07:23.687Z,964.18
2017-10-05T02:08:33.342Z,964.18
2017-10-05T02:09:42.686Z,964.14
2017-10-05T02:10:52.021Z,964.17
2017-10-05T02:12:01.355Z,964.09
2017-10-05T02:13:10.685Z,964.06
2017-10-05T02:14:20.013Z,964.11
2017-10-05T02:15:28.705Z,964.09
2017-10-05T02:16:37.400Z,964.1
2017-10-05T02:17:46.412Z,964.15
2017-10-05T02:18:55.747Z,964.12
2017-10-05T02:20:05.080Z,964.09
2017-10-05T02:21:14.095Z,964.13
2017-10-05T02:22:23.435Z,964.09
2017-10-05T02:23:32.451Z,963.98
2017-10-05T02:24:41.464Z,963.92
2017-10-05T02:25:50.480Z,963.83
2017-10-05T02:26:59.811Z,963.87
2017-10-05T02:28:08.505Z,963.82
2017-10-05T02:29:17.200Z,963.84
2017-10-05T02:30:25.893Z,963.81
2017-10-05T02:31:34.592Z,963.83
2017-10-05T02:32:43.921Z,963.84
2017-10-05T02:33:53.254Z,963.78
2017-10-05T02:35:02.590Z,963.71
2017-10-05T02:36:11.923Z,963.65
2017-10-05T02:37:20.626Z,963.55
2017-10-05T02:38:29.969Z,963.58
2017-10-05T02:39:38.982Z,963.54
2017-10-05T02:40:48.313Z,963.35
2017-10-05T02:41:57.328Z,963.37
2017-10-05T02:43:06.018Z,963.37
2017-10-05T02:44:15.666Z,963.34
2017-10-05T02:45:25.324Z,963.34
2017-10-05T02:46:34.658Z,963.34
2017-10-05T02:47:43.996Z,963.29
2017-10-05T02:48:53.330Z,963.24
2017-10-05T02:50:02.664Z,963.34
2017-10-05T02:51:11.997Z,963.1
2017-10-05T02:52:21.649Z,963.11
2017-10-05T02:53:30.664Z,963.06
2017-10-05T02:54:40.002Z,963.03
2017-10-05T02:55:49.023Z,962.97
2017-10-05T02:56:58.358Z,962.95
2017-10-05T02:58:07.373Z,962.97
2017-10-05T02:59:16.697Z,962.91
2017-10-05T03:00:25.709Z,962.82
2017-10-05T03:01:35.038Z,962.79
2017-10-05T03:02:44.059Z,962.84
2017-10-05T03:03:52.753Z,962.89
2017-10-05T03:05:01.769Z,962.76
2017-10-05T03:06:10.787Z,962.69
2017-10-05T03:07:19.483Z,962.67
2017-10-05T03:08:29.139Z,962.62
2017-10-05T03:09:38.151Z,962.63
2017-10-05T03:10:47.482Z,962.6
2017-10-05T03:11:56.494Z,962.63
2017-10-05T03:13:05.507Z,962.57
2017-10-05T03:14:14.523Z,962.52
2017-10-05T03:15:23.221Z,962.52
2017-10-05T03:16:32.240Z,962.5
2017-10-05T03:17:40.934Z,962.52
2017-10-05T03:18:49.947Z,962.53
2017-10-05T03:19:58.643Z,962.54
2017-10-05T03:21:07.655Z,962.57
2017-10-05T03:22:16.349Z,962.52
2017-10-05T03:23:25.684Z,962.45
2017-10-05T03:24:35.337Z,962.38
2017-10-05T03:25:44.668Z,962.3
2017-10-05T03:26:53.363Z,962.31
2017-10-05T03:28:02.696Z,962.32
2017-10-05T03:29:12.348Z,962.27
2017-10-05T03:30:21.361Z,962.31
2017-10-05T03:31:31.016Z,962.31
2017-10-05T03:32:40.029Z,962.38
2017-10-05T03:33:49.368Z,962.37
2017-10-05T03:34:58.380Z,962.29
2017-10-05T03:36:07.721Z,962.19
2017-10-05T03:37:16.744Z,962.28
2017-10-05T03:38:26.718Z,962.13
2017-10-05T03:39:36.404Z,962.11
2017-10-05T03:40:45.744Z,962.05
2017-10-05T03:41:55.081Z,962.06
2017-10-05T03:43:04.095Z,962
2017-10-05T03:44:14.070Z,961.94
2017-10-05T03:45:23.396Z,961.96
2017-10-05T03:46:32.729Z,961.9
2017-10-05T03:47:41.741Z,961.79
2017-10-05T03:48:51.072Z,961.59
2017-10-05T03:50:00.412Z,961.61
2017-10-05T03:51:09.750Z,961.59
2017-10-05T03:52:19.093Z,961.57
2017-10-05T03:53:28.754Z,961.77
2017-10-05T03:54:37.768Z,961.73
2017-10-05T03:55:47.103Z,961.68
2017-10-05T03:56:55.799Z,961.62
2017-10-05T03:58:05.141Z,961.41
2017-10-05T03:59:14.478Z,961.43
2017-10-05T04:00:23.490Z,961.4
2017-10-05T04:01:32.820Z,961.43
2017-10-05T04:02:42.795Z,961.48
2017-10-05T04:03:52.455Z,961.47
2017-10-05T04:05:01.790Z,961.45
2017-10-05T04:06:11.136Z,961.38
2017-10-05T04:07:19.833Z,961.43
2017-10-05T04:08:29.173Z,961.39
2017-10-05T04:09:38.184Z,961.45
2017-10-05T04:10:47.199Z,961.38
2017-10-05T04:11:55.894Z,961.41
2017-10-05T04:13:04.910Z,961.32
2017-10-05T04:14:14.243Z,961.41
2017-10-05T04:15:22.937Z,961.4
2017-10-05T04:16:31.950Z,961.41
2017-10-05T04:17:41.282Z,961.32
2017-10-05T04:18:50.300Z,961.31
2017-10-05T04:19:59.312Z,961.23
2017-10-05T04:21:08.328Z,961.09
2017-10-05T04:22:17.663Z,961.23
2017-10-05T04:23:26.990Z,961.25
2017-10-05T04:24:36.965Z,961.15
2017-10-05T04:25:45.659Z,961.16
2017-10-05T04:26:54.350Z,961.21
2017-10-05T04:28:03.045Z,961.14
2017-10-05T04:29:12.703Z,961.14
2017-10-05T04:30:21.722Z,961.15
2017-10-05T04:31:30.739Z,961.09
2017-10-05T04:32:39.428Z,961.02
2017-10-05T04:33:48.767Z,961.1
2017-10-05T04:34:57.456Z,961.07
2017-10-05T04:36:06.469Z,961.13
2017-10-05T04:37:15.477Z,961.13
2017-10-05T04:38:25.126Z,961.11
2017-10-05T04:39:34.793Z,961.15
2017-10-05T04:40:44.129Z,961.14
2017-10-05T04:41:53.458Z,961.25
2017-10-05T04:43:02.157Z,961.17
2017-10-05T04:44:10.853Z,961.32
2017-10-05T04:45:19.548Z,961.4
2017-10-05T04:46:28.876Z,961.44
2017-10-05T04:47:38.207Z,961.46
2017-10-05T04:48:47.542Z,961.45
2017-10-05T04:49:56.235Z,961.42
2017-10-05T04:51:05.251Z,961.33
2017-10-05T04:52:14.907Z,961.27
2017-10-05T04:53:23.924Z,961.23
2017-10-05T04:54:33.576Z,961.28
2017-10-05T04:55:42.913Z,961.24
2017-10-05T04:56:51.924Z,961.19
2017-10-05T04:58:01.263Z,961.26
2017-10-05T04:59:09.956Z,961.04
2017-10-05T05:00:19.288Z,961.13
2017-10-05T05:01:28.617Z,961.08
2017-10-05T05:02:37.627Z,961.05
2017-10-05T05:03:46.958Z,961.04
2017-10-05T05:04:56.296Z,961.08
2017-10-05T05:06:05.314Z,960.92
2017-10-05T05:07:14.325Z,960.98
2017-10-05T05:08:23.343Z,960.98
2017-10-05T05:09:32.359Z,960.94
2017-10-05T05:10:42.013Z,961.01
2017-10-05T05:11:51.028Z,961.02
2017-10-05T05:13:00.043Z,960.96
2017-10-05T05:14:09.699Z,961
2017-10-05T05:15:18.397Z,960.84
2017-10-05T05:16:27.089Z,960.85
2017-10-05T05:17:36.744Z,960.73
2017-10-05T05:18:46.391Z,960.65
2017-10-05T05:19:55.408Z,960.73
2017-10-05T05:21:04.742Z,960.68
2017-10-05T05:22:13.757Z,960.66
2017-10-05T05:23:22.450Z,960.67
2017-10-05T05:24:31.145Z,960.56
2017-10-05T05:25:40.482Z,960.57
2017-10-05T05:26:49.810Z,960.53
2017-10-05T05:27:58.828Z,960.5
2017-10-05T05:29:07.521Z,960.47
2017-10-05T05:30:16.530Z,960.46
2017-10-05T05:31:25.543Z,960.48
2017-10-05T05:32:34.876Z,960.44
2017-10-05T05:33:43.892Z,960.47
2017-10-05T05:34:53.227Z,960.43
2017-10-05T05:36:02.234Z,960.48
2017-10-05T05:37:10.928Z,960.37
2017-10-05T05:38:20.576Z,960.44
2017-10-05T05:39:29.595Z,960.41
2017-10-05T05:40:38.609Z,960.44
2017-10-05T05:41:47.624Z,960.31
2017-10-05T05:42:56.965Z,960.24
2017-10-05T05:44:05.981Z,960.18
2017-10-05T05:45:15.315Z,960.23
2017-10-05T05:46:24.974Z,960.2
2017-10-05T05:47:34.308Z,960.12
2017-10-05T05:48:42.999Z,960.09
2017-10-05T05:49:51.691Z,960.13
2017-10-05T05:51:01.040Z,960.17
2017-10-05T05:52:10.052Z,960.23
2017-10-05T05:53:19.387Z,960.17
2017-10-05T05:54:28.078Z,960.07
2017-10-05T05:55:37.414Z,960.03
2017-10-05T05:56:47.072Z,960.13
2017-10-05T05:57:56.399Z,960
2017-10-05T05:59:06.064Z,959.95
2017-10-05T06:00:15.080Z,959.97
2017-10-05T06:01:24.413Z,959.9
2017-10-05T06:02:33.747Z,959.94
2017-10-05T06:03:42.759Z,959.94
2017-10-05T06:04:51.768Z,959.96
2017-10-05T06:06:00.782Z,959.85
2017-10-05T06:07:10.118Z,959.79
2017-10-05T06:08:19.448Z,959.85
2017-10-05T06:09:28.142Z,959.8
2017-10-05T06:10:36.836Z,959.95
2017-10-05T06:11:46.168Z,959.86
2017-10-05T06:12:55.819Z,959.93
2017-10-05T06:14:05.190Z,959.9
2017-10-05T06:15:14.526Z,959.78
2017-10-05T06:16:24.180Z,959.91
2017-10-05T06:17:33.191Z,959.86
2017-10-05T06:18:42.206Z,959.65
2017-10-05T06:19:51.553Z,959.72
2017-10-05T06:21:01.533Z,959.7
2017-10-05T06:22:10.547Z,959.7
2017-10-05T06:23:19.884Z,959.65
2017-10-05T06:24:28.900Z,959.64
2017-10-05T06:25:37.953Z,959.62
2017-10-05T06:26:46.644Z,959.62
2017-10-05T06:27:55.668Z,959.71
2017-10-05T06:29:04.686Z,959.51
2017-10-05T06:30:13.700Z,959.62
2017-10-05T06:31:23.044Z,959.64
2017-10-05T06:32:32.373Z,959.48
2017-10-05T06:33:41.713Z,959.5
2017-10-05T06:34:50.408Z,959.44
2017-10-05T06:35:59.111Z,959.38
2017-10-05T06:37:07.808Z,959.41
2017-10-05T06:38:17.164Z,959.37
2017-10-05T06:39:26.790Z,959.37
2017-10-05T06:40:35.800Z,959.23
2017-10-05T06:41:44.491Z,959.29
2017-10-05T06:42:53.825Z,959.35
2017-10-05T06:44:02.521Z,959.32
2017-10-05T06:45:12.180Z,959.26
2017-10-05T06:46:21.196Z,959.26
2017-10-05T06:47:31.172Z,959.24
2017-10-05T06:48:39.866Z,959.22
2017-10-05T06:49:48.880Z,959.22
2017-10-05T06:50:58.210Z,959.25
2017-10-05T06:52:07.223Z,959.15
2017-10-05T06:53:16.233Z,959.25
2017-10-05T06:54:25.572Z,959.31
2017-10-05T06:55:34.903Z,959.24
2017-10-05T06:56:43.918Z,959.18
2017-10-05T06:57:53.249Z,959.17
2017-10-05T06:59:02.269Z,959.16
2017-10-05T07:00:11.282Z,959.12
2017-10-05T07:01:20.295Z,959.12
2017-10-05T07:02:28.990Z,959.05
2017-10-05T07:03:38.320Z,959.07
2017-10-05T07:04:47.973Z,959.06
2017-10-05T07:05:57.308Z,959.15
2017-10-05T07:07:06.643Z,959.1
2017-10-05T07:08:16.294Z,959.04
2017-10-05T07:09:25.319Z,959.06
2017-10-05T07:10:34.006Z,958.98
2017-10-05T07:11:43.018Z,959.08
2017-10-05T07:12:52.357Z,958.99
2017-10-05T07:14:01.693Z,959.04
2017-10-05T07:15:10.386Z,959.11
2017-10-05T07:16:19.724Z,959.07
2017-10-05T07:17:28.422Z,959.07
2017-10-05T07:18:37.115Z,958.98
2017-10-05T07:19:46.446Z,958.98
2017-10-05T07:20:55.784Z,959.02
2017-10-05T07:22:04.803Z,959.02
2017-10-05T07:23:14.133Z,959
2017-10-05T07:24:23.145Z,959.02
2017-10-05T07:25:32.508Z,958.96
2017-10-05T07:26:41.860Z,958.97
2017-10-05T07:27:50.551Z,958.94
2017-10-05T07:28:59.563Z,958.88
2017-10-05T07:30:08.897Z,959.08
2017-10-05T07:31:18.558Z,959.05
2017-10-05T07:32:27.892Z,959.07
2017-10-05T07:33:36.907Z,959.08
2017-10-05T07:34:46.234Z,959.02
2017-10-05T07:35:54.925Z,959.08
2017-10-05T07:37:03.934Z,959.02
2017-10-05T07:38:12.947Z,959.09
2017-10-05T07:39:21.962Z,959.05
2017-10-05T07:40:31.295Z,959.05
2017-10-05T07:41:40.628Z,959
2017-10-05T07:42:49.638Z,959.04
2017-10-05T07:43:58.651Z,959.07
2017-10-05T07:45:07.664Z,959.03
2017-10-05T07:46:17.322Z,959.03
2017-10-05T07:47:26.024Z,958.83
2017-10-05T07:48:35.039Z,958.99
2017-10-05T07:49:44.051Z,958.99
2017-10-05T07:50:53.065Z,958.95
2017-10-05T07:52:01.760Z,959.02
2017-10-05T07:53:11.093Z,958.89
2017-10-05T07:54:20.105Z,958.95
2017-10-05T07:55:29.752Z,958.89
2017-10-05T07:56:39.420Z,958.94
2017-10-05T07:57:48.110Z,958.93
2017-10-05T07:58:57.118Z,959.07
2017-10-05T08:00:06.458Z,958.94
2017-10-05T08:01:15.473Z,958.89
2017-10-05T08:02:24.885Z,959.05
2017-10-05T08:03:34.221Z,958.97
2017-10-05T08:04:42.917Z,959.04
2017-10-05T08:05:51.935Z,958.99
2017-10-05T08:07:00.628Z,958.92
2017-10-05T08:08:09.333Z,958.98
2017-10-05T08:09:18.353Z,959.07
2017-10-05T08:10:27.373Z,959.07
2017-10-05T08:11:36.713Z,958.97
2017-10-05T08:12:45.730Z,958.96
2017-10-05T08:13:54.745Z,958.84
2017-10-05T08:15:03.763Z,958.9
2017-10-05T08:16:13.418Z,958.9
2017-10-05T08:17:22.760Z,958.82
2017-10-05T08:18:31.770Z,958.78
2017-10-05T08:19:40.785Z,958.82
2017-10-05T08:20:50.121Z,958.75
2017-10-05T08:21:58.821Z,958.83
2017-10-05T08:23:07.836Z,958.67
2017-10-05T08:24:16.850Z,958.75
2017-10-05T08:25:26.209Z,958.64
2017-10-05T08:26:35.544Z,958.82
2017-10-05T08:27:44.877Z,958.64
2017-10-05T08:28:53.891Z,958.8
2017-10-05T08:30:03.223Z,958.64
2017-10-05T08:31:12.877Z,958.84
2017-10-05T08:32:22.525Z,959.02
2017-10-05T08:33:31.538Z,958.7
2017-10-05T08:34:40.549Z,958.72
2017-10-05T08:35:49.564Z,958.72
2017-10-05T08:36:58.577Z,958.71
2017-10-05T08:38:07.589Z,958.59
2017-10-05T08:39:16.923Z,958.52
2017-10-05T08:40:25.939Z,958.54
2017-10-05T08:41:35.270Z,958.63
2017-10-05T08:42:44.322Z,958.59
2017-10-05T08:43:53.333Z,958.55
2017-10-05T08:45:02.677Z,958.65
2017-10-05T08:46:12.007Z,958.65
2017-10-05T08:47:21.346Z,958.56
2017-10-05T08:48:30.994Z,958.69
2017-10-05T08:49:40.006Z,958.56
2017-10-05T08:50:49.022Z,958.61
2017-10-05T08:51:58.039Z,958.6
2017-10-05T08:53:07.059Z,958.49
2017-10-05T08:54:16.712Z,958.53
2017-10-05T08:55:26.043Z,958.52
2017-10-05T08:56:36.016Z,958.62
2017-10-05T08:57:45.355Z,958.54
2017-10-05T08:58:54.688Z,958.43
2017-10-05T09:00:03.705Z,958.39
2017-10-05T09:01:12.721Z,958.45
2017-10-05T09:02:21.732Z,958.44
2017-10-05T09:03:30.751Z,958.59
2017-10-05T09:04:40.074Z,958.52
2017-10-05T09:05:49.405Z,958.51
2017-10-05T09:06:58.101Z,958.52
2017-10-05T09:08:07.124Z,958.63
2017-10-05T09:09:15.815Z,958.61
2017-10-05T09:10:24.825Z,958.57
2017-10-05T09:11:34.476Z,958.49
2017-10-05T09:12:43.497Z,958.49
2017-10-05T09:13:53.153Z,958.47
2017-10-05T09:15:01.846Z,958.45
2017-10-05T09:16:11.180Z,958.55
2017-10-05T09:17:20.198Z,958.52
2017-10-05T09:18:29.212Z,958.42
2017-10-05T09:19:37.906Z,958.39
2017-10-05T09:20:46.924Z,958.4
2017-10-05T09:21:55.939Z,958.47
2017-10-05T09:23:05.276Z,958.48
2017-10-05T09:24:14.287Z,958.51
2017-10-05T09:25:23.303Z,958.44
2017-10-05T09:26:32.634Z,958.51
2017-10-05T09:27:41.646Z,958.59
2017-10-05T09:28:50.666Z,958.46
2017-10-05T09:29:59.362Z,958.45
2017-10-05T09:31:08.063Z,958.55
2017-10-05T09:32:16.765Z,958.7
2017-10-05T09:33:26.100Z,958.6
2017-10-05T09:34:35.118Z,958.63
2017-10-05T09:35:44.455Z,958.54
2017-10-05T09:36:53.475Z,958.44
2017-10-05T09:38:03.129Z,958.42
2017-10-05T09:39:11.825Z,958.5
2017-10-05T09:40:21.482Z,958.55
2017-10-05T09:41:30.496Z,958.54
2017-10-05T09:42:39.507Z,958.53
2017-10-05T09:43:49.162Z,958.46
2017-10-05T09:44:58.498Z,958.46
2017-10-05T09:46:07.189Z,958.39
2017-10-05T09:47:16.519Z,958.5
2017-10-05T09:48:25.530Z,958.4
2017-10-05T09:49:34.225Z,958.47
2017-10-05T09:50:43.235Z,958.37
2017-10-05T09:51:52.572Z,958.39
2017-10-05T09:53:01.585Z,958.31
2017-10-05T09:54:10.279Z,958.35
2017-10-05T09:55:18.973Z,958.41
2017-10-05T09:56:27.673Z,958.37
2017-10-05T09:57:37.010Z,958.51
2017-10-05T09:58:46.029Z,958.38
2017-10-05T09:59:55.043Z,958.46
2017-10-05T10:01:04.054Z,958.51
2017-10-05T10:02:13.387Z,958.41
2017-10-05T10:03:22.078Z,958.38
2017-10-05T10:04:31.093Z,958.31
2017-10-05T10:05:40.423Z,958.34
2017-10-05T10:06:49.754Z,958.45
2017-10-05T10:07:59.081Z,958.34
2017-10-05T10:09:07.776Z,958.39
2017-10-05T10:10:16.787Z,958.21
2017-10-05T10:11:26.440Z,958.41
2017-10-05T10:12:36.087Z,958.36
2017-10-05T10:13:45.100Z,958.28
2017-10-05T10:14:54.515Z,958.32
2017-10-05T10:16:03.852Z,958.31
2017-10-05T10:17:12.547Z,958.2
2017-10-05T10:18:21.878Z,958.31
2017-10-05T10:19:30.896Z,958.34
2017-10-05T10:20:39.909Z,958.32
2017-10-05T10:21:49.237Z,958.14
2017-10-05T10:22:58.563Z,958.27
2017-10-05T10:24:07.893Z,958.28
2017-10-05T10:25:16.903Z,958.18
2017-10-05T10:26:26.232Z,958.17
2017-10-05T10:27:34.925Z,958.2
2017-10-05T10:28:44.286Z,958.14
2017-10-05T10:29:53.623Z,958.24
2017-10-05T10:31:02.956Z,958.27
2017-10-05T10:32:12.291Z,958.29
2017-10-05T10:33:20.985Z,958.19
2017-10-05T10:34:29.681Z,958.4
2017-10-05T10:35:39.016Z,958.5
2017-10-05T10:36:47.710Z,958.55
2017-10-05T10:37:56.722Z,958.64
2017-10-05T10:39:05.421Z,958.64
2017-10-05T10:40:14.803Z,958.69
2017-10-05T10:41:23.497Z,958.71
2017-10-05T10:42:32.510Z,958.97
2017-10-05T10:43:41.840Z,958.91
2017-10-05T10:44:50.853Z,959.01
2017-10-05T10:46:00.182Z,959.12
2017-10-05T10:47:09.509Z,959.08
2017-10-05T10:48:18.525Z,959.21
2017-10-05T10:49:27.222Z,959.34
2017-10-05T10:50:36.567Z,959.31
2017-10-05T10:51:45.577Z,959.45
2017-10-05T10:52:54.268Z,959.69
2017-10-05T10:54:02.963Z,959.66
2017-10-05T10:55:11.977Z,959.42
2017-10-05T10:56:20.989Z,959.5
2017-10-05T10:57:30.003Z,959.59
2017-10-05T10:58:39.336Z,959.56
2017-10-05T10:59:48.351Z,959.51
2017-10-05T11:00:57.688Z,959.55
2017-10-05T11:02:07.021Z,959.65
2017-10-05T11:03:15.716Z,959.82
2017-10-05T11:04:25.041Z,959.73
2017-10-05T11:05:33.734Z,959.92
2017-10-05T11:06:42.751Z,959.82
2017-10-05T11:07:51.765Z,959.93
2017-10-05T11:09:00.777Z,959.82
2017-10-05T11:10:09.789Z,959.81
2017-10-05T11:11:18.802Z,959.95
2017-10-05T11:12:27.811Z,959.83
2017-10-05T11:13:36.507Z,959.96
2017-10-05T11:14:45.522Z,959.98
2017-10-05T11:15:55.171Z,960.07
2017-10-05T11:17:04.827Z,959.95
2017-10-05T11:18:13.841Z,960.02
2017-10-05T11:19:22.536Z,960.01
2017-10-05T11:20:31.228Z,959.99
2017-10-05T11:21:40.246Z,959.99
2017-10-05T11:22:49.264Z,960.05
2017-10-05T11:23:58.918Z,960.02
2017-10-05T11:25:07.612Z,960.08
2017-10-05T11:26:16.950Z,960.14
2017-10-05T11:27:26.286Z,960.23
2017-10-05T11:28:35.298Z,960.19
2017-10-05T11:29:44.952Z,960.23
2017-10-05T11:30:53.979Z,960.18
2017-10-05T11:32:02.669Z,960.26
2017-10-05T11:33:12.004Z,960.29
2017-10-05T11:34:21.014Z,960.18
2017-10-05T11:35:30.042Z,960.26
2017-10-05T11:36:38.736Z,960.43
2017-10-05T11:37:47.749Z,960.32
2017-10-05T11:38:57.399Z,960.46
2017-10-05T11:40:07.048Z,960.41
2017-10-05T11:41:16.390Z,960.36
2017-10-05T11:42:25.726Z,960.43
2017-10-05T11:43:35.061Z,960.39
2017-10-05T11:44:44.075Z,960.5
2017-10-05T11:45:53.090Z,960.5
2017-10-05T11:47:02.108Z,960.51
2017-10-05T11:48:10.803Z,960.5
2017-10-05T11:49:19.497Z,960.61
2017-10-05T11:50:28.835Z,960.63
2017-10-05T11:51:38.173Z,960.58
2017-10-05T11:52:46.865Z,960.71
2017-10-05T11:53:55.880Z,960.73
2017-10-05T11:55:04.574Z,960.62
2017-10-05T11:56:13.589Z,960.75
2017-10-05T11:57:22.929Z,960.68
2017-10-05T11:58:32.259Z,960.67
2017-10-05T11:59:41.592Z,960.67
2017-10-05T12:00:50.946Z,960.68
2017-10-05T12:01:59.958Z,960.68
2017-10-05T12:03:09.946Z,960.77
2017-10-05T12:04:18.645Z,960.72
2017-10-05T12:05:27.661Z,960.67
2017-10-05T12:06:37.316Z,960.84
2017-10-05T12:07:46.330Z,960.78
2017-10-05T12:08:55.661Z,960.8
2017-10-05T12:10:04.670Z,960.82
2017-10-05T12:11:13.364Z,960.74
2017-10-05T12:12:23.024Z,960.79
2017-10-05T12:13:31.722Z,960.83
2017-10-05T12:14:40.421Z,960.83
2017-10-05T12:15:49.439Z,960.88
2017-10-05T12:16:58.138Z,960.89
2017-10-05T12:18:07.478Z,960.84
2017-10-05T12:19:16.173Z,960.86
2017-10-05T12:20:25.506Z,960.97
2017-10-05T12:21:34.852Z,961.01
2017-10-05T12:22:44.185Z,961.03
2017-10-05T12:23:52.880Z,961.07
2017-10-05T12:25:01.899Z,961.16
2017-10-05T12:26:10.917Z,961.22
2017-10-05T12:27:19.937Z,961.22
2017-10-05T12:28:29.272Z,961.26
2017-10-05T12:29:38.285Z,961.26
2017-10-05T12:30:47.303Z,961.24
2017-10-05T12:31:56.639Z,961.32
2017-10-05T12:33:05.972Z,961.28
2017-10-05T12:34:15.310Z,961.38
2017-10-05T12:35:24.965Z,961.27
2017-10-05T12:36:34.299Z,961.4
2017-10-05T12:37:43.314Z,961.35
2017-10-05T12:38:52.335Z,961.36
2017-10-05T12:40:01.354Z,961.41
2017-10-05T12:41:10.369Z,961.42
2017-10-05T12:42:19.416Z,961.49
2017-10-05T12:43:28.751Z,961.6
2017-10-05T12:44:37.445Z,961.41
2017-10-05T12:45:46.464Z,961.56
2017-10-05T12:46:55.482Z,961.72
2017-10-05T12:48:04.813Z,961.53
2017-10-05T12:49:14.463Z,961.68
2017-10-05T12:50:23.155Z,961.63
2017-10-05T12:51:32.175Z,961.77
2017-10-05T12:52:41.516Z,961.7
2017-10-05T12:53:50.532Z,961.73
2017-10-05T12:54:59.544Z,961.7
2017-10-05T12:56:08.878Z,961.69
2017-10-05T12:57:17.580Z,961.9
2017-10-05T12:58:26.626Z,961.89
2017-10-05T12:59:36.283Z,961.79
2017-10-05T13:00:44.976Z,961.78
2017-10-05T13:01:53.671Z,961.9
2017-10-05T13:03:03.323Z,961.85
2017-10-05T13:04:12.660Z,961.93
2017-10-05T13:05:21.676Z,961.99
2017-10-05T13:06:31.012Z,961.89
2017-10-05T13:07:40.665Z,961.85
2017-10-05T13:08:49.680Z,961.94
2017-10-05T13:09:59.012Z,961.86
2017-10-05T13:11:07.708Z,962.06
2017-10-05T13:12:17.036Z,962.06
2017-10-05T13:13:27.011Z,962.01
2017-10-05T13:14:35.707Z,962
2017-10-05T13:15:44.716Z,962.08
2017-10-05T13:16:53.731Z,962.02
2017-10-05T13:18:02.427Z,962.1
2017-10-05T13:19:11.138Z,962.14
2017-10-05T13:20:20.144Z,962.28
2017-10-05T13:21:29.165Z,962.29
2017-10-05T13:22:38.819Z,962.32
2017-10-05T13:23:48.467Z,962.34
2017-10-05T13:24:57.803Z,962.4
2017-10-05T13:26:06.824Z,962.57
2017-10-05T13:27:15.835Z,962.47
2017-10-05T13:28:24.847Z,962.57
2017-10-05T13:29:34.184Z,962.56
2017-10-05T13:30:43.522Z,962.57
2017-10-05T13:31:52.536Z,962.62
2017-10-05T13:33:01.553Z,962.54
2017-10-05T13:34:10.565Z,962.6
2017-10-05T13:35:19.899Z,962.57
2017-10-05T13:36:28.597Z,962.62
2017-10-05T13:37:37.609Z,962.66
2017-10-05T13:38:46.624Z,962.64
2017-10-05T13:39:55.317Z,962.66
2017-10-05T13:41:04.017Z,962.74
2017-10-05T13:42:13.675Z,962.69
2017-10-05T13:43:22.373Z,962.55
2017-10-05T13:44:31.389Z,962.76
2017-10-05T13:45:40.402Z,962.72
2017-10-05T13:46:49.098Z,962.78
2017-10-05T13:47:58.115Z,962.79
2017-10-05T13:49:07.451Z,962.73
2017-10-05T13:50:17.423Z,962.74
2017-10-05T13:51:26.435Z,962.83
2017-10-05T13:52:36.092Z,962.77
2017-10-05T13:53:45.742Z,962.81
2017-10-05T13:54:55.392Z,962.89
2017-10-05T13:56:04.726Z,962.88
2017-10-05T13:57:13.424Z,962.94
2017-10-05T13:58:22.757Z,962.94
2017-10-05T13:59:32.101Z,963
2017-10-05T14:00:41.747Z,963
2017-10-05T14:01:51.079Z,962.94
2017-10-05T14:02:59.778Z,963
2017-10-05T14:04:08.795Z,963.01
2017-10-05T14:05:17.492Z,963.01
2017-10-05T14:06:26.826Z,963.07
2017-10-05T14:07:36.155Z,963.1
2017-10-05T14:08:45.179Z,963.1
2017-10-05T14:09:54.523Z,963.07
2017-10-05T14:11:04.187Z,963.14
2017-10-05T14:12:13.846Z,963.18
2017-10-05T14:13:22.869Z,963.18
2017-10-05T14:14:31.568Z,963.2
2017-10-05T14:15:40.898Z,963.17
2017-10-05T14:16:49.597Z,963.27
2017-10-05T14:17:58.929Z,963.18
2017-10-05T14:19:07.626Z,963.33
2017-10-05T14:20:16.639Z,963.32
2017-10-05T14:21:25.651Z,963.27
2017-10-05T14:22:34.349Z,963.33
2017-10-05T14:23:43.689Z,963.36
2017-10-05T14:24:52.702Z,963.35
2017-10-05T14:26:02.352Z,963.34